createdAt,value
2018-03-27T00:01:32.212Z,101133.72
2018-03-27T00:03:59.799Z,101139.76
2018-03-27T00:06:27.366Z,101137.23
2018-03-27T00:08:55.494Z,101131.80
2018-03-27T00:11:23.103Z,101141.00
2018-03-27T00:13:51.183Z,101140.83
2018-03-27T00:16:19.332Z,101145.34
2018-03-27T00:18:47.451Z,101144.63
2018-03-27T00:21:15.356Z,101146.63
2018-03-27T00:23:43.212Z,101151.77
2018-03-27T00:26:11.432Z,101151.81
2018-03-27T00:28:50.805Z,101149.58
2018-03-27T00:31:30.068Z,101148.77
2018-03-27T00:34:10.616Z,101152.23
2018-03-27T00:36:49.849Z,101154.67
2018-03-27T00:39:30.109Z,101155.33
2018-03-27T00:42:18.444Z,101162.48
2018-03-27T00:44:46.014Z,101158.86
2018-03-27T00:47:13.611Z,101160.88
2018-03-27T00:49:42.197Z,101165.41
2018-03-27T00:52:10.837Z,101162.38
2018-03-27T00:54:38.416Z,101162.47
2018-03-27T00:57:05.997Z,101162.17
2018-03-27T00:59:34.380Z,101156.34
2018-03-27T01:02:02.526Z,101158.23
2018-03-27T01:04:30.113Z,101158.06
2018-03-27T01:06:57.692Z,101164.59
2018-03-27T01:09:25.721Z,101158.10
2018-03-27T01:11:54.408Z,101159.33
2018-03-27T01:14:22.052Z,101155.70
2018-03-27T01:16:50.600Z,101156.21
2018-03-27T01:19:19.529Z,101160.13
2018-03-27T01:21:47.124Z,101159.08
2018-03-27T01:24:14.695Z,101162.45
2018-03-27T01:26:42.328Z,101160.22
2018-03-27T01:29:09.995Z,101159.64
2018-03-27T01:31:37.648Z,101162.84
2018-03-27T01:34:05.286Z,101159.06
2018-03-27T01:36:32.850Z,101168.51
2018-03-27T01:39:00.427Z,101158.53
2018-03-27T01:41:28.053Z,101161.09
2018-03-27T01:43:55.838Z,101166.02
2018-03-27T01:46:23.776Z,101166.59
2018-03-27T01:48:51.638Z,101170.52
2018-03-27T01:51:20.057Z,101172.32
2018-03-27T01:53:47.708Z,101175.48
2018-03-27T01:56:16.132Z,101172.57
2018-03-27T01:58:44.329Z,101173.11
2018-03-27T02:01:14.372Z,101170.13
2018-03-27T02:03:43.114Z,101165.02
2018-03-27T02:06:11.193Z,101169.78
2018-03-27T02:08:39.412Z,101168.73
2018-03-27T02:11:14.456Z,101163.31
2018-03-27T02:13:48.824Z,101160.08
2018-03-27T02:16:22.107Z,101164.28
2018-03-27T02:18:56.126Z,101164.12
2018-03-27T02:21:24.353Z,101163.54
2018-03-27T02:23:52.484Z,101166.66
2018-03-27T02:26:20.148Z,101165.86
2018-03-27T02:28:47.968Z,101161.72
2018-03-27T02:31:15.548Z,101166.64
2018-03-27T02:33:43.260Z,101163.44
2018-03-27T02:36:10.985Z,101160.69
2018-03-27T02:38:38.570Z,101158.73
2018-03-27T02:41:06.223Z,101160.25
2018-03-27T02:43:34.031Z,101157.92
2018-03-27T02:46:01.653Z,101168.05
2018-03-27T02:48:29.265Z,101163.38
2018-03-27T02:50:57.838Z,101160.51
2018-03-27T02:53:25.462Z,101158.06
2018-03-27T02:55:53.359Z,101160.75
2018-03-27T02:58:21.519Z,101160.06
2018-03-27T03:00:49.984Z,101155.31
2018-03-27T03:03:18.283Z,101153.70
2018-03-27T03:05:45.886Z,101152.90
2018-03-27T03:08:14.231Z,101158.58
2018-03-27T03:10:42.451Z,101151.67
2018-03-27T03:13:10.613Z,101153.94
2018-03-27T03:15:38.647Z,101153.56
2018-03-27T03:18:06.844Z,101161.12
2018-03-27T03:20:34.404Z,101158.97
2018-03-27T03:23:01.971Z,101163.00
2018-03-27T03:25:29.581Z,101161.36
2018-03-27T03:27:57.152Z,101162.39
2018-03-27T03:30:24.818Z,101164.78
2018-03-27T03:32:52.413Z,101166.23
2018-03-27T03:35:20.022Z,101167.23
2018-03-27T03:37:47.849Z,101170.00
2018-03-27T03:40:15.569Z,101169.77
2018-03-27T03:42:43.317Z,101172.98
2018-03-27T03:45:11.120Z,101176.63
2018-03-27T03:47:38.705Z,101175.06
2018-03-27T03:50:07.231Z,101176.98
2018-03-27T03:52:34.809Z,101176.86
2018-03-27T03:55:02.358Z,101171.53
2018-03-27T03:57:30.792Z,101169.12
2018-03-27T03:59:59.025Z,101168.88
2018-03-27T04:02:26.639Z,101165.23
2018-03-27T04:04:54.280Z,101166.00
2018-03-27T04:07:21.913Z,101171.36
2018-03-27T04:09:50.009Z,101168.63
2018-03-27T04:12:18.524Z,101167.55
2018-03-27T04:14:46.073Z,101175.86
2018-03-27T04:17:14.435Z,101165.66
2018-03-27T04:19:43.529Z,101171.36
2018-03-27T04:22:11.125Z,101167.11
2018-03-27T04:24:38.711Z,101167.11
2018-03-27T04:27:06.323Z,101166.65
2018-03-27T04:29:33.879Z,101168.02
2018-03-27T04:32:01.424Z,101169.62
2018-03-27T04:34:29.027Z,101170.38
2018-03-27T04:36:56.588Z,101176.25
2018-03-27T04:39:24.555Z,101172.87
2018-03-27T04:41:52.287Z,101172.91
2018-03-27T04:44:19.887Z,101176.92
2018-03-27T04:46:47.468Z,101183.50
2018-03-27T04:49:15.801Z,101183.47
2018-03-27T04:51:43.930Z,101185.05
2018-03-27T04:54:12.329Z,101185.78
2018-03-27T04:56:41.525Z,101187.02
2018-03-27T04:59:10.118Z,101177.76
2018-03-27T05:01:38.279Z,101184.62
2018-03-27T05:04:05.823Z,101184.20
2018-03-27T05:06:33.463Z,101189.22
2018-03-27T05:09:01.577Z,101185.09
2018-03-27T05:11:29.832Z,101187.02
2018-03-27T05:13:58.159Z,101192.75
2018-03-27T05:16:25.696Z,101188.66
2018-03-27T05:18:53.861Z,101184.75
2018-03-27T05:21:21.472Z,101191.16
2018-03-27T05:23:49.028Z,101192.63
2018-03-27T05:26:16.634Z,101197.50
2018-03-27T05:28:44.186Z,101194.02
2018-03-27T05:31:12.605Z,101205.72
2018-03-27T05:33:40.724Z,101202.13
2018-03-27T05:36:08.276Z,101206.92
2018-03-27T05:38:35.859Z,101205.27
2018-03-27T05:41:03.480Z,101209.80
2018-03-27T05:43:31.096Z,101214.52
2018-03-27T05:45:58.693Z,101216.58
2018-03-27T05:48:26.304Z,101206.37
2018-03-27T05:50:55.268Z,101210.61
2018-03-27T05:53:22.933Z,101215.99
2018-03-27T05:55:50.584Z,101210.55
2018-03-27T05:58:18.770Z,101209.44
2018-03-27T06:00:47.082Z,101212.87
2018-03-27T06:03:14.684Z,101215.76
2018-03-27T06:05:42.578Z,101216.02
2018-03-27T06:08:12.018Z,101218.77
2018-03-27T06:10:40.811Z,101216.32
2018-03-27T06:13:09.089Z,101215.05
2018-03-27T06:15:36.676Z,101211.66
2018-03-27T06:18:04.884Z,101217.29
2018-03-27T06:20:32.572Z,101219.21
2018-03-27T06:23:00.860Z,101220.10
2018-03-27T06:25:28.582Z,101224.59
2018-03-27T06:27:56.240Z,101216.59
2018-03-27T06:30:24.017Z,101222.36
2018-03-27T06:32:52.730Z,101222.53
2018-03-27T06:35:20.356Z,101228.30
2018-03-27T06:37:48.012Z,101223.16
2018-03-27T06:40:15.620Z,101221.30
2018-03-27T06:42:43.440Z,101225.88
2018-03-27T06:45:11.932Z,101225.17
2018-03-27T06:47:40.157Z,101222.97
2018-03-27T06:50:08.704Z,101230.82
2018-03-27T06:52:36.417Z,101236.75
2018-03-27T06:55:04.297Z,101236.45
2018-03-27T06:57:33.491Z,101243.55
2018-03-27T07:00:02.102Z,101234.94
2018-03-27T07:02:30.002Z,101229.59
2018-03-27T07:04:58.404Z,101226.98
2018-03-27T07:07:26.261Z,101235.05
2018-03-27T07:09:55.467Z,101223.10
2018-03-27T07:12:26.626Z,101227.54
2018-03-27T07:14:54.369Z,101226.69
2018-03-27T07:17:22.630Z,101227.27
2018-03-27T07:19:51.322Z,101214.14
2018-03-27T07:22:19.181Z,101220.94
2018-03-27T07:24:46.800Z,101219.79
2018-03-27T07:27:14.524Z,101213.13
2018-03-27T07:29:43.080Z,101213.61
2018-03-27T07:32:11.367Z,101215.00
2018-03-27T07:34:39.134Z,101214.95
2018-03-27T07:37:06.734Z,101206.28
2018-03-27T07:39:34.309Z,101213.10
2018-03-27T07:42:02.006Z,101209.84
2018-03-27T07:44:30.025Z,101210.09
2018-03-27T07:46:57.659Z,101213.87
2018-03-27T07:49:25.307Z,101214.80
2018-03-27T07:51:54.158Z,101216.00
2018-03-27T07:54:21.727Z,101214.47
2018-03-27T07:56:50.078Z,101213.52
2018-03-27T07:59:18.299Z,101209.16
2018-03-27T08:01:46.646Z,101216.34
2018-03-27T08:04:15.400Z,101207.58
2018-03-27T08:06:43.915Z,101210.55
2018-03-27T08:09:12.370Z,101213.84
2018-03-27T08:11:41.121Z,101218.21
2018-03-27T08:14:08.971Z,101210.37
2018-03-27T08:16:36.556Z,101207.50
2018-03-27T08:19:04.832Z,101211.66
2018-03-27T08:21:33.083Z,101219.22
2018-03-27T08:24:00.836Z,101216.76
2018-03-27T08:26:28.435Z,101222.92
2018-03-27T08:28:56.146Z,101219.87
2018-03-27T08:31:23.946Z,101221.44
2018-03-27T08:33:51.873Z,101226.86
2018-03-27T08:36:19.720Z,101224.03
2018-03-27T08:38:47.405Z,101226.88
2018-03-27T08:41:15.169Z,101223.91
2018-03-27T08:43:42.857Z,101227.91
2018-03-27T08:46:10.981Z,101226.56
2018-03-27T08:48:38.606Z,101219.97
2018-03-27T08:51:06.914Z,101219.70
2018-03-27T08:53:34.500Z,101225.39
2018-03-27T08:56:02.684Z,101231.32
2018-03-27T08:58:30.742Z,101215.63
2018-03-27T09:00:58.757Z,101216.45
2018-03-27T09:03:26.314Z,101222.09
2018-03-27T09:05:54.070Z,101226.03
2018-03-27T09:08:23.123Z,101216.78
2018-03-27T09:10:51.390Z,101219.45
2018-03-27T09:13:18.943Z,101216.13
2018-03-27T09:15:46.482Z,101217.28
2018-03-27T09:18:14.752Z,101221.19
2018-03-27T09:20:42.712Z,101220.95
2018-03-27T09:23:10.327Z,101217.77
2018-03-27T09:25:37.898Z,101217.52
2018-03-27T09:28:05.426Z,101216.86
2018-03-27T09:30:33.016Z,101209.13
2018-03-27T09:33:00.573Z,101208.34
2018-03-27T09:35:28.160Z,101209.75
2018-03-27T09:37:55.781Z,101207.27
2018-03-27T09:40:23.367Z,101210.53
2018-03-27T09:42:51.074Z,101209.84
2018-03-27T09:45:18.625Z,101213.22
2018-03-27T09:47:46.217Z,101204.02
2018-03-27T09:50:14.504Z,101210.25
2018-03-27T09:52:42.529Z,101207.66
2018-03-27T09:55:10.093Z,101207.39
2018-03-27T09:57:38.114Z,101203.30
2018-03-27T10:00:06.592Z,101205.38
2018-03-27T10:02:34.147Z,101211.20
2018-03-27T10:05:02.470Z,101214.20
2018-03-27T10:07:30.084Z,101210.09
2018-03-27T10:09:58.462Z,101209.88
2018-03-27T10:12:26.460Z,101211.34
2018-03-27T10:14:55.088Z,101203.54
2018-03-27T10:17:23.628Z,101198.96
2018-03-27T10:19:51.778Z,101198.90
2018-03-27T10:22:19.952Z,101202.13
2018-03-27T10:24:47.505Z,101205.02
2018-03-27T10:27:15.036Z,101197.60
2018-03-27T10:29:42.752Z,101199.78
2018-03-27T10:32:10.314Z,101199.59
2018-03-27T10:34:37.863Z,101201.48
2018-03-27T10:37:05.500Z,101204.22
2018-03-27T10:39:33.065Z,101209.05
2018-03-27T10:42:00.596Z,101211.17
2018-03-27T10:44:28.154Z,101207.53
2018-03-27T10:46:55.807Z,101199.13
2018-03-27T10:49:23.405Z,101196.70
2018-03-27T10:51:51.600Z,101199.73
2018-03-27T10:54:19.116Z,101191.67
2018-03-27T10:56:47.310Z,101194.21
2018-03-27T10:59:15.968Z,101190.06
2018-03-27T11:01:44.200Z,101194.38
2018-03-27T11:04:11.831Z,101189.10
2018-03-27T11:06:39.364Z,101191.26
2018-03-27T11:09:07.797Z,101188.73
2018-03-27T11:11:35.641Z,101185.53
2018-03-27T11:14:03.256Z,101189.93
2018-03-27T11:16:30.847Z,101187.73
2018-03-27T11:18:59.364Z,101187.51
2018-03-27T11:21:27.744Z,101184.59
2018-03-27T11:23:55.453Z,101179.65
2018-03-27T11:26:23.005Z,101178.74
2018-03-27T11:28:50.599Z,101183.14
2018-03-27T11:31:18.173Z,101176.80
2018-03-27T11:33:45.734Z,101179.42
2018-03-27T11:36:13.549Z,101181.14
2018-03-27T11:38:41.072Z,101181.45
2018-03-27T11:41:08.603Z,101184.31
2018-03-27T11:43:36.200Z,101171.35
2018-03-27T11:46:03.832Z,101175.58
2018-03-27T11:48:32.108Z,101177.80
2018-03-27T11:51:00.243Z,101177.19
2018-03-27T11:53:28.575Z,101175.73
2018-03-27T11:55:56.468Z,101180.53
2018-03-27T11:58:24.901Z,101172.58
2018-03-27T12:00:53.279Z,101167.98
2018-03-27T12:03:20.838Z,101170.77
2018-03-27T12:05:48.506Z,101169.06
2018-03-27T12:08:16.577Z,101166.61
2018-03-27T12:10:45.266Z,101159.50
2018-03-27T12:13:13.067Z,101165.08
2018-03-27T12:15:40.600Z,101162.13
2018-03-27T12:18:08.560Z,101160.04
2018-03-27T12:20:36.733Z,101153.11
2018-03-27T12:23:04.312Z,101151.20
2018-03-27T12:25:31.877Z,101142.64
2018-03-27T12:27:59.438Z,101141.47
2018-03-27T12:30:26.967Z,101137.89
2018-03-27T12:32:54.789Z,101135.83
2018-03-27T12:35:22.456Z,101133.80
2018-03-27T12:37:49.996Z,101133.45
2018-03-27T12:40:17.523Z,101130.32
2018-03-27T12:42:45.091Z,101126.41
2018-03-27T12:45:12.950Z,101127.94
2018-03-27T12:47:40.530Z,101119.44
2018-03-27T12:50:08.869Z,101113.59
2018-03-27T12:52:36.987Z,101119.67
2018-03-27T12:55:04.568Z,101107.84
2018-03-27T12:57:32.828Z,101106.64
2018-03-27T13:00:01.168Z,101114.50
2018-03-27T13:02:28.705Z,101116.66
2018-03-27T13:04:56.252Z,101105.13
2018-03-27T13:07:23.874Z,101113.34
2018-03-27T13:09:52.058Z,101112.64
2018-03-27T13:12:20.132Z,101110.95
2018-03-27T13:14:47.655Z,101110.33
2018-03-27T13:17:15.709Z,101116.90
2018-03-27T13:19:44.083Z,101108.27
2018-03-27T13:22:12.288Z,101105.17
2018-03-27T13:24:39.832Z,101109.34
2018-03-27T13:27:07.445Z,101104.95
2018-03-27T13:29:34.997Z,101102.94
2018-03-27T13:32:02.525Z,101110.32
2018-03-27T13:34:30.896Z,101105.38
2018-03-27T13:36:58.440Z,101107.41
2018-03-27T13:39:25.997Z,101104.87
2018-03-27T13:41:53.706Z,101100.59
2018-03-27T13:44:21.233Z,101097.80
2018-03-27T13:46:48.889Z,101093.06
2018-03-27T13:49:17.223Z,101096.61
2018-03-27T13:51:45.333Z,101098.53
2018-03-27T13:54:13.721Z,101093.06
2018-03-27T13:56:42.441Z,101087.52
2018-03-27T13:59:10.582Z,101087.10
2018-03-27T14:01:38.527Z,101083.79
2018-03-27T14:04:06.071Z,101074.97
2018-03-27T14:06:33.608Z,101073.72
2018-03-27T14:09:01.637Z,101079.99
2018-03-27T14:11:29.845Z,101068.31
2018-03-27T14:13:57.388Z,101064.34
2018-03-27T14:16:24.938Z,101065.19
2018-03-27T14:18:53.121Z,101069.22
2018-03-27T14:21:21.476Z,101063.38
2018-03-27T14:23:49.025Z,101071.42
2018-03-27T14:26:16.571Z,101067.00
2018-03-27T14:28:44.162Z,101069.05
2018-03-27T14:31:11.750Z,101057.97
2018-03-27T14:33:39.432Z,101064.92
2018-03-27T14:36:07.064Z,101063.45
2018-03-27T14:38:34.600Z,101065.90
2018-03-27T14:41:02.168Z,101072.24
2018-03-27T14:43:29.732Z,101063.58
2018-03-27T14:45:58.120Z,101060.37
2018-03-27T14:48:25.866Z,101056.92
2018-03-27T14:50:54.431Z,101061.91
2018-03-27T14:53:21.949Z,101057.94
2018-03-27T14:55:49.534Z,101057.55
2018-03-27T14:58:17.570Z,101052.33
2018-03-27T15:00:46.101Z,101050.77
2018-03-27T15:03:14.773Z,101051.00
2018-03-27T15:05:47.872Z,101050.93
2018-03-27T15:08:16.196Z,101049.98
2018-03-27T15:10:45.018Z,101048.47
2018-03-27T15:13:12.997Z,101047.46
2018-03-27T15:15:40.548Z,101048.23
2018-03-27T15:18:08.878Z,101045.04
2018-03-27T15:20:37.049Z,101040.20
2018-03-27T15:23:04.608Z,101042.44
2018-03-27T15:25:32.140Z,101043.13
2018-03-27T15:27:59.735Z,101043.41
2018-03-27T15:30:27.269Z,101037.52
2018-03-27T15:32:55.135Z,101037.86
2018-03-27T15:35:23.009Z,101039.95
2018-03-27T15:37:50.564Z,101036.74
2018-03-27T15:40:18.121Z,101037.12
2018-03-27T15:42:45.789Z,101036.56
2018-03-27T15:45:14.165Z,101034.93
2018-03-27T15:47:41.754Z,101038.83
2018-03-27T15:50:09.844Z,101035.08
2018-03-27T15:52:38.294Z,101032.56
2018-03-27T15:55:05.848Z,101023.94
2018-03-27T15:57:33.797Z,101028.88
2018-03-27T16:00:01.881Z,101021.08
2018-03-27T16:02:29.431Z,101021.61
2018-03-27T16:04:56.988Z,101024.88
2018-03-27T16:07:24.547Z,101018.66
2018-03-27T16:09:52.684Z,101013.39
2018-03-27T16:12:20.729Z,101016.75
2018-03-27T16:14:48.292Z,101017.28
2018-03-27T16:17:17.148Z,101016.25
2018-03-27T16:19:45.084Z,101017.16
2018-03-27T16:22:12.975Z,101023.24
2018-03-27T16:24:40.578Z,101020.77
2018-03-27T16:27:08.141Z,101011.84
2018-03-27T16:29:35.744Z,101019.79
2018-03-27T16:32:03.317Z,101016.27
2018-03-27T16:34:30.840Z,101014.64
2018-03-27T16:36:58.762Z,101010.24
2018-03-27T16:39:26.325Z,101009.56
2018-03-27T16:41:54.924Z,101016.50
2018-03-27T16:44:22.486Z,101012.91
2018-03-27T16:46:50.923Z,101018.09
2018-03-27T16:49:18.528Z,101012.48
2018-03-27T16:51:46.600Z,101016.52
2018-03-27T16:54:14.128Z,101018.04
2018-03-27T16:56:43.313Z,101022.02
2018-03-27T16:59:11.833Z,101024.16
2018-03-27T17:01:40.803Z,101025.75
2018-03-27T17:04:08.865Z,101023.97
2018-03-27T17:06:36.470Z,101025.23
2018-03-27T17:09:04.709Z,101030.77
2018-03-27T17:11:32.764Z,101030.22
2018-03-27T17:14:00.313Z,101029.38
2018-03-27T17:16:27.840Z,101032.83
2018-03-27T17:18:55.838Z,101032.92
2018-03-27T17:21:24.328Z,101035.88
2018-03-27T17:23:51.960Z,101036.73
2018-03-27T17:26:19.497Z,101041.59
2018-03-27T17:28:47.081Z,101048.72
2018-03-27T17:31:14.651Z,101048.58
2018-03-27T17:33:42.796Z,101046.74
2018-03-27T17:36:10.413Z,101049.58
2018-03-27T17:38:38.894Z,101050.66
2018-03-27T17:41:06.484Z,101051.97
2018-03-27T17:43:34.021Z,101058.13
2018-03-27T17:46:01.683Z,101061.17
2018-03-27T17:48:29.273Z,101059.33
2018-03-27T17:50:57.477Z,101069.18
2018-03-27T17:53:25.062Z,101063.70
2018-03-27T17:55:53.037Z,101066.45
2018-03-27T17:58:21.400Z,101064.93
2018-03-27T18:00:49.334Z,101071.11
2018-03-27T18:03:16.900Z,101071.45
2018-03-27T18:05:44.466Z,101076.56
2018-03-27T18:08:12.702Z,101076.97
2018-03-27T18:10:40.846Z,101080.74
2018-03-27T18:13:08.452Z,101079.14
2018-03-27T18:15:36.021Z,101080.73
2018-03-27T18:18:04.195Z,101083.48
2018-03-27T18:20:32.504Z,101084.61
2018-03-27T18:23:00.060Z,101082.13
2018-03-27T18:25:27.627Z,101085.23
2018-03-27T18:27:55.210Z,101081.27
2018-03-27T18:30:22.978Z,101082.98
2018-03-27T18:32:50.618Z,101091.88
2018-03-27T18:35:18.198Z,101090.11
2018-03-27T18:37:46.680Z,101089.38
2018-03-27T18:40:14.304Z,101082.13
2018-03-27T18:42:43.394Z,101085.36
2018-03-27T18:45:11.128Z,101096.25
2018-03-27T18:47:40.204Z,101091.84
2018-03-27T18:50:08.681Z,101089.27
2018-03-27T18:52:36.707Z,101085.59
2018-03-27T18:55:04.319Z,101083.12
2018-03-27T18:57:32.795Z,101090.83
2018-03-27T19:00:01.079Z,101090.05
2018-03-27T19:02:28.640Z,101090.41
2018-03-27T19:04:56.302Z,101088.47
2018-03-27T19:07:24.157Z,101087.95
2018-03-27T19:09:52.451Z,101085.69
2018-03-27T19:12:20.472Z,101088.63
2018-03-27T19:14:48.389Z,101094.77
2018-03-27T19:17:16.765Z,101094.64
2018-03-27T19:19:44.909Z,101102.00
2018-03-27T19:22:13.550Z,101099.63
2018-03-27T19:24:41.694Z,101097.98
2018-03-27T19:27:09.378Z,101099.61
2018-03-27T19:29:37.015Z,101105.84
2018-03-27T19:32:04.679Z,101104.52
2018-03-27T19:34:32.961Z,101102.56
2018-03-27T19:37:00.590Z,101100.94
2018-03-27T19:39:28.149Z,101102.83
2018-03-27T19:41:55.834Z,101101.94
2018-03-27T19:44:23.511Z,101097.16
2018-03-27T19:46:52.503Z,101103.93
2018-03-27T19:49:20.175Z,101099.11
2018-03-27T19:51:48.451Z,101100.29
2018-03-27T19:54:16.219Z,101103.70
2018-03-27T19:56:45.120Z,101100.22
2018-03-27T19:59:13.865Z,101095.07
2018-03-27T20:01:44.236Z,101098.33
2018-03-27T20:04:12.173Z,101101.59
2018-03-27T20:06:39.730Z,101102.91
2018-03-27T20:09:07.983Z,101098.02
2018-03-27T20:11:36.307Z,101100.23
2018-03-27T20:14:03.985Z,101101.17
2018-03-27T20:16:31.599Z,101096.50
2018-03-27T20:18:59.942Z,101097.48
2018-03-27T20:21:28.253Z,101099.79
2018-03-27T20:23:55.823Z,101093.39
2018-03-27T20:26:23.608Z,101094.97
2018-03-27T20:28:51.565Z,101096.12
2018-03-27T20:31:20.146Z,101096.52
2018-03-27T20:33:48.372Z,101090.63
2018-03-27T20:36:15.988Z,101091.50
2018-03-27T20:38:43.861Z,101085.78
2018-03-27T20:41:11.607Z,101088.40
2018-03-27T20:43:39.194Z,101092.36
2018-03-27T20:46:06.936Z,101089.78
2018-03-27T20:48:34.513Z,101090.31
2018-03-27T20:51:02.967Z,101100.03
2018-03-27T20:53:30.574Z,101096.83
2018-03-27T20:55:58.614Z,101099.06
2018-03-27T20:58:26.717Z,101094.82
2018-03-27T21:00:54.710Z,101096.76
2018-03-27T21:03:22.412Z,101097.63
2018-03-27T21:05:50.034Z,101093.38
2018-03-27T21:08:18.245Z,101098.08
2018-03-27T21:10:46.462Z,101097.98
2018-03-27T21:13:14.065Z,101100.84
2018-03-27T21:15:41.746Z,101106.33
2018-03-27T21:18:10.292Z,101108.80
2018-03-27T21:20:38.364Z,101098.98
2018-03-27T21:23:05.975Z,101108.07
2018-03-27T21:25:33.546Z,101105.91
2018-03-27T21:28:01.142Z,101102.80
2018-03-27T21:30:29.428Z,101111.35
2018-03-27T21:32:56.986Z,101100.78
2018-03-27T21:35:24.619Z,101104.05
2018-03-27T21:37:52.370Z,101108.73
2018-03-27T21:40:19.936Z,101103.91
2018-03-27T21:42:47.486Z,101101.71
2018-03-27T21:45:15.305Z,101109.83
2018-03-27T21:47:43.159Z,101104.50
2018-03-27T21:50:11.680Z,101100.77
2018-03-27T21:52:39.872Z,101101.54
2018-03-27T21:55:07.440Z,101103.08
2018-03-27T21:57:35.623Z,101105.55
2018-03-27T22:00:03.931Z,101108.89
2018-03-27T22:02:31.512Z,101103.84
2018-03-27T22:04:59.078Z,101106.83
2018-03-27T22:07:26.716Z,101107.22
2018-03-27T22:09:55.082Z,101104.97
2018-03-27T22:12:23.632Z,101114.84
2018-03-27T22:14:51.342Z,101109.05
2018-03-27T22:17:19.465Z,101108.42
2018-03-27T22:19:47.574Z,101109.56
2018-03-27T22:22:15.895Z,101107.73
2018-03-27T22:24:43.789Z,101115.42
2018-03-27T22:27:13.347Z,101108.67
2018-03-27T22:29:40.962Z,101115.09
2018-03-27T22:32:08.597Z,101111.86
2018-03-27T22:34:36.182Z,101111.77
2018-03-27T22:37:03.743Z,101111.61
2018-03-27T22:39:31.328Z,101111.36
2018-03-27T22:41:58.971Z,101109.00
2018-03-27T22:44:26.548Z,101106.23
2018-03-27T22:46:54.166Z,101107.75
2018-03-27T22:49:21.769Z,101108.17
2018-03-27T22:51:50.078Z,101101.94
2018-03-27T22:54:17.657Z,101103.49
2018-03-27T22:56:46.042Z,101099.45
2018-03-27T22:59:14.375Z,101100.33
2018-03-27T23:01:43.306Z,101103.23
2018-03-27T23:04:10.860Z,101104.37
2018-03-27T23:06:38.420Z,101101.20
2018-03-27T23:09:06.563Z,101103.14
2018-03-27T23:11:34.799Z,101112.02
2018-03-27T23:14:02.370Z,101109.22
2018-03-27T23:16:29.942Z,101111.20
2018-03-27T23:18:58.109Z,101106.19
2018-03-27T23:21:26.623Z,101107.61
2018-03-27T23:23:54.322Z,101105.70
2018-03-27T23:26:22.709Z,101099.55
2018-03-27T23:28:50.351Z,101104.05
2018-03-27T23:31:17.934Z,101099.98
2018-03-27T23:33:45.608Z,101093.29
2018-03-27T23:36:13.850Z,101099.47
2018-03-27T23:38:43.426Z,101093.95
2018-03-27T23:41:11.154Z,101104.23
2018-03-27T23:43:38.744Z,101101.45
2018-03-27T23:46:06.321Z,101102.53
2018-03-27T23:48:33.943Z,101098.89
2018-03-27T23:51:02.221Z,101099.01
2018-03-27T23:53:29.789Z,101092.27
2018-03-27T23:55:57.407Z,101093.84
2018-03-27T23:58:25.732Z,101094.16
